< < Back
Terminal Aerodrome Forecast


Current Version              Previous Versions:   1  2  3  4  5  6  7  8  9  

Terminal Aerodrome Forecast

936
FTUS42 KFFC 251731
TAFAHN
TAF
KAHN 251731Z 2518/2618 19006KT P6SM BKN012
     FM252000 22010G18KT P6SM BKN030 BKN050
      TEMPO 2522/2602 VRB12G22KT 3SM TSRA BKN020CB
     FM260200 23008KT P6SM BKN040
     FM260800 24008KT 3SM BR BKN012 BKN035
     FM261300 28010KT P6SM BKN020
     FM261600 29012G22KT P6SM BKN045=



Latest METAR

485
SAUS70 KWBC 251700 RRU
MTRAHN
METAR KAHN 251751Z VRB03KT 10SM OVC011 19/17 A2975 RMK AO2 CIG 008V014
SLP071 60039 T01940167 10194 20133 56014


USA.gov is the U.S. government's official web portal to all federal, state and local government web resources and services.